Blades, Delaware
Current Conditions -  °F | °C
As of 6:54 PM on Sunday 21 Dec 2014 (Local Time) from KGED Reporting Station
Haze Haze  
Wind Chill: 29°   Ceiling: Unl
Heat Index: 29°   Visibility: 6mi
Dew Point: 24°   Wind: 0mph
Humidity: 82%   Direction: NA
Pressure: 30.34"   Gusts: NA
Location:  38.6412°N, 75.6063°W
Report Text: KGED 212354Z AUTO 00000KT 6SM HZ CLR M02/M04 A3034 RMK AO2 SLP272 T10171044 10061 21017 51014
Loading
Personal Weather Stations






























Interactive Weather Map New forecast layout! Learn more

10-Day Weather Forecast

Advertisements
Track Severe Weather on mobile